createdAt,value
2023-02-24T00:00:47.653Z,2.98
2023-02-24T00:03:14.072Z,2.86
2023-02-24T00:05:42.808Z,2.86
2023-02-24T00:08:09.450Z,2.96
2023-02-24T00:10:37.508Z,2.97
2023-02-24T00:13:04.078Z,2.97
2023-02-24T00:15:30.541Z,2.93
2023-02-24T00:17:58.334Z,2.96
2023-02-24T00:20:24.966Z,2.93
2023-02-24T00:22:51.530Z,2.88
2023-02-24T00:25:18.176Z,2.88
2023-02-24T00:27:44.591Z,2.84
2023-02-24T00:30:11.992Z,2.83
2023-02-24T00:32:38.643Z,2.90
2023-02-24T00:35:05.762Z,2.91
2023-02-24T00:37:32.920Z,2.83
2023-02-24T00:39:59.372Z,2.85
2023-02-24T00:42:25.859Z,2.78
2023-02-24T00:44:54.108Z,2.83
2023-02-24T00:47:22.432Z,2.59
2023-02-24T00:49:50.205Z,2.56
2023-02-24T00:52:20.886Z,2.46
2023-02-24T00:54:49.717Z,2.51
2023-02-24T00:57:21.267Z,2.43
2023-02-24T00:59:48.111Z,2.42
2023-02-24T01:02:15.301Z,2.38
2023-02-24T01:04:42.521Z,2.27
2023-02-24T01:07:11.398Z,2.27
2023-02-24T01:09:39.438Z,2.15
2023-02-24T01:12:38.578Z,2.12
2023-02-24T01:15:09.961Z,2.01
2023-02-24T01:17:37.619Z,2.07
2023-02-24T01:20:16.001Z,2.06
2023-02-24T01:22:44.928Z,2.05
2023-02-24T01:25:11.563Z,2.00
2023-02-24T01:44:03.557Z,1.75
2023-02-24T01:46:33.211Z,1.67
2023-02-24T01:49:21.177Z,1.74
2023-02-24T01:51:54.797Z,1.80
2023-02-24T01:54:25.293Z,1.68
2023-02-24T01:56:53.438Z,1.67
2023-02-24T01:59:23.832Z,1.62
2023-02-24T02:01:54.121Z,1.46
2023-02-24T02:04:49.593Z,1.57
2023-02-24T02:07:19.710Z,1.48
2023-02-24T02:09:47.788Z,1.37
2023-02-24T02:12:14.281Z,1.31
2023-02-24T02:14:48.190Z,1.33
2023-02-24T02:17:36.952Z,1.20
2023-02-24T02:20:39.159Z,1.34
2023-02-24T02:23:24.250Z,1.29
2023-02-24T02:26:20.023Z,1.27
2023-02-24T02:29:01.660Z,1.27
2023-02-24T02:31:29.269Z,1.23
2023-02-24T02:34:17.108Z,1.20
2023-02-24T02:36:54.781Z,1.14
2023-02-24T02:39:35.309Z,1.10
2023-02-24T02:42:39.384Z,0.99
2023-02-24T02:45:29.058Z,0.76
2023-02-24T02:48:07.518Z,0.82
2023-02-24T02:50:43.350Z,0.88
2023-02-24T02:53:31.260Z,0.87
2023-02-24T02:56:15.618Z,0.87
2023-02-24T02:58:47.869Z,0.80
2023-02-24T03:01:18.556Z,0.76
2023-02-24T03:03:50.829Z,0.68
2023-02-24T03:06:24.316Z,0.76
2023-02-24T03:09:00.036Z,0.68
2023-02-24T03:11:27.384Z,0.76
2023-02-24T03:13:57.670Z,0.63
2023-02-24T03:16:27.177Z,0.66
2023-02-24T03:19:03.929Z,0.63
2023-02-24T03:21:36.542Z,0.60
2023-02-24T03:24:06.446Z,0.57
2023-02-24T03:26:35.830Z,0.60
2023-02-24T03:29:36.480Z,0.47
2023-02-24T03:32:10.017Z,0.57
2023-02-24T03:35:23.321Z,0.54
2023-02-24T03:37:50.558Z,0.62
2023-02-24T03:40:17.892Z,0.44
2023-02-24T03:42:47.959Z,0.40
2023-02-24T03:45:16.319Z,0.55
2023-02-24T03:47:46.573Z,0.51
2023-02-24T03:50:17.448Z,0.49
2023-02-24T03:52:55.609Z,0.59
2023-02-24T03:55:43.951Z,0.59
2023-02-24T03:58:31.238Z,0.56
2023-02-24T04:01:13.135Z,0.44
2023-02-24T04:04:04.354Z,0.50
2023-02-24T04:06:42.989Z,0.53
2023-02-24T04:09:23.111Z,0.57
2023-02-24T04:11:58.814Z,0.44
2023-02-24T04:14:29.446Z,0.47
2023-02-24T04:17:03.294Z,0.45
2023-02-24T04:19:38.377Z,0.42
2023-02-24T04:22:13.200Z,0.47
2023-02-24T04:24:42.971Z,0.39
2023-02-24T04:27:11.907Z,0.34
2023-02-24T04:29:47.246Z,0.39
2023-02-24T04:32:18.702Z,0.20
2023-02-24T04:34:45.642Z,0.27
2023-02-24T04:37:12.072Z,0.18
2023-02-24T04:39:39.453Z,0.32
2023-02-24T04:47:46.325Z,0.32
2023-02-24T04:50:22.759Z,0.27
2023-02-24T04:52:54.922Z,0.25
2023-02-24T04:55:23.569Z,0.22
2023-02-24T04:57:52.878Z,0.23
2023-02-24T05:00:23.007Z,0.24
2023-02-24T05:02:50.790Z,0.24
2023-02-24T05:05:25.531Z,0.24
2023-02-24T05:07:53.220Z,0.16
2023-02-24T05:10:19.796Z,0.29
2023-02-24T05:12:46.281Z,0.22
2023-02-24T05:15:12.746Z,0.20
2023-02-24T05:17:40.743Z,0.20
2023-02-24T05:20:27.818Z,0.07
2023-02-24T05:22:54.306Z,0.12
2023-02-24T05:25:20.999Z,0.22
2023-02-24T05:27:47.612Z,0.22
2023-02-24T05:30:14.545Z,0.18
2023-02-24T05:32:41.216Z,0.17
2023-02-24T05:35:08.647Z,0.19
2023-02-24T05:37:41.933Z,0.18
2023-02-24T05:40:15.906Z,0.10
2023-02-24T05:42:45.183Z,0.16
2023-02-24T05:45:12.122Z,0.12
2023-02-24T05:47:40.142Z,-0.07
2023-02-24T05:50:09.192Z,-0.02
2023-02-24T05:52:37.100Z,0.01
2023-02-24T05:55:07.203Z,-0.03
2023-02-24T05:57:35.688Z,-0.02
2023-02-24T06:00:11.012Z,-0.08
2023-02-24T06:02:37.883Z,0.01
2023-02-24T06:05:04.714Z,0.05
2023-02-24T06:07:34.646Z,-0.03
2023-02-24T06:10:05.073Z,0.00
2023-02-24T06:12:33.804Z,-0.05
2023-02-24T06:15:00.740Z,0.02
2023-02-24T06:17:28.558Z,-0.03
2023-02-24T06:19:55.313Z,0.06
2023-02-24T06:22:23.733Z,0.09
2023-02-24T06:24:50.718Z,0.01
2023-02-24T06:27:19.027Z,-0.03
2023-02-24T06:29:49.875Z,-0.03
2023-02-24T06:32:18.131Z,0.02
2023-02-24T06:34:44.689Z,-0.06
2023-02-24T06:37:13.838Z,-0.05
2023-02-24T06:39:40.820Z,0.05
2023-02-24T06:42:08.870Z,0.05
2023-02-24T06:44:38.335Z,0.12
2023-02-24T06:47:07.156Z,0.11
2023-02-24T06:49:33.965Z,0.07
2023-02-24T06:52:00.601Z,-0.10
2023-02-24T06:54:30.477Z,-0.02
2023-02-24T06:56:59.374Z,-0.01
2023-02-24T06:59:28.611Z,0.08
2023-02-24T07:01:56.732Z,0.13
2023-02-24T07:04:27.764Z,0.13
2023-02-24T08:14:16.221Z,0.30
2023-02-24T08:16:43.924Z,0.17
2023-02-24T08:19:20.872Z,0.26
2023-02-24T08:21:53.287Z,0.17
2023-02-24T08:24:25.382Z,0.04
2023-02-24T08:27:07.013Z,0.36
2023-02-24T08:29:57.787Z,0.30
2023-02-24T08:32:26.371Z,0.31
2023-02-24T08:35:03.054Z,0.31
2023-02-24T08:37:39.801Z,0.29
2023-02-24T08:40:30.414Z,0.45
2023-02-24T08:42:58.938Z,0.43
2023-02-24T08:45:28.771Z,0.42
2023-02-24T08:48:00.650Z,0.49
2023-02-24T08:50:33.901Z,0.61
2023-02-24T08:53:03.540Z,0.80
2023-02-24T08:55:32.967Z,0.94
2023-02-24T08:58:03.155Z,0.92
2023-02-24T09:00:49.010Z,0.91
2023-02-24T09:03:28.021Z,0.94
2023-02-24T09:06:08.811Z,0.81
2023-02-24T09:08:41.439Z,0.81
2023-02-24T09:11:13.836Z,0.95
2023-02-24T09:13:54.948Z,0.85
2023-02-24T09:16:23.838Z,0.93
2023-02-24T09:19:11.489Z,1.05
2023-02-24T09:21:50.122Z,0.84
2023-02-24T09:24:27.047Z,0.92
2023-02-24T09:26:58.578Z,0.73
2023-02-24T09:29:49.241Z,0.67
2023-02-24T09:32:16.396Z,0.53
2023-02-24T09:34:44.167Z,0.58
2023-02-24T09:37:25.054Z,0.55
2023-02-24T09:40:18.624Z,0.56
2023-02-24T09:42:48.453Z,0.73
2023-02-24T09:45:33.049Z,0.74
2023-02-24T09:48:10.821Z,0.88
2023-02-24T09:51:04.127Z,0.78
2023-02-24T09:53:41.228Z,0.78
2023-02-24T09:56:37.021Z,0.87
2023-02-24T09:59:26.355Z,0.78
2023-02-24T10:02:39.537Z,0.96
2023-02-24T10:05:38.541Z,1.09
2023-02-24T10:08:17.922Z,1.07
2023-02-24T10:11:00.994Z,0.81
2023-02-24T10:13:32.623Z,0.89
2023-02-24T10:59:41.182Z,1.06
2023-02-24T11:02:29.494Z,1.04
2023-02-24T11:05:04.679Z,0.80
2023-02-24T11:07:53.672Z,0.94
2023-02-24T11:10:32.594Z,0.87
2023-02-24T11:13:19.146Z,0.95
2023-02-24T11:16:13.674Z,0.63
2023-02-24T11:18:50.501Z,0.37
2023-02-24T11:21:18.334Z,0.45
2023-02-24T11:23:53.444Z,0.23
2023-02-24T11:26:27.402Z,0.07
2023-02-24T11:29:11.026Z,-0.14
2023-02-24T11:31:54.487Z,-0.04
2023-02-24T11:34:34.283Z,-0.17
2023-02-24T11:37:20.377Z,-0.21
2023-02-24T11:40:11.716Z,-0.37
2023-02-24T11:42:51.116Z,-0.26
2023-02-24T11:45:40.091Z,-0.36
2023-02-24T11:48:15.403Z,-0.33
2023-02-24T11:50:54.030Z,-0.27
2023-02-24T11:53:45.848Z,-0.36
2023-02-24T11:58:54.025Z,-0.71
2023-02-24T12:04:29.058Z,-0.75
2023-02-24T12:07:21.950Z,-0.66
2023-02-24T12:10:17.092Z,-0.63
2023-02-24T12:13:16.626Z,-0.62
2023-02-24T12:15:53.352Z,-0.50
2023-02-24T12:18:27.674Z,-0.61
2023-02-24T12:21:06.732Z,-0.59
2023-02-24T12:23:37.584Z,-0.54
2023-02-24T12:34:09.692Z,-0.76
2023-02-24T12:36:47.478Z,-0.80
2023-02-24T12:39:36.169Z,-0.67
2023-02-24T12:42:14.677Z,-0.69
2023-02-24T12:44:56.449Z,-0.78
2023-02-24T12:47:27.383Z,-0.84
2023-02-24T12:50:21.707Z,-0.82
2023-02-24T12:53:09.775Z,-0.90
2023-02-24T12:55:50.126Z,-1.04
2023-02-24T12:58:22.363Z,-0.97
2023-02-24T13:01:01.994Z,-0.90
2023-02-24T13:03:50.487Z,-0.88
2023-02-24T13:06:28.964Z,-1.10
2023-02-24T13:09:26.628Z,-1.11
2023-02-24T13:12:08.695Z,-1.08
2023-02-24T13:14:37.273Z,-1.14
2023-02-24T13:17:20.853Z,-0.98
2023-02-24T13:19:48.795Z,-1.22
2023-02-24T13:22:16.865Z,-1.13
2023-02-24T13:24:54.966Z,-1.17
2023-02-24T13:27:23.283Z,-1.31
2023-02-24T13:29:57.483Z,-1.23
2023-02-24T13:32:33.095Z,-1.24
2023-02-24T13:35:22.808Z,-1.25
2023-02-24T13:37:49.612Z,-1.34
2023-02-24T13:40:18.809Z,-1.26
2023-02-24T13:42:59.905Z,-1.20
2023-02-24T13:45:39.836Z,-1.19
2023-02-24T13:48:44.980Z,-1.30
2023-02-24T13:51:17.742Z,-1.17
2023-02-24T13:54:06.563Z,-1.28
2023-02-24T13:56:55.921Z,-1.25
2023-02-24T13:59:57.746Z,-1.09
2023-02-24T14:02:31.456Z,-1.20
2023-02-24T14:05:01.096Z,-1.08
2023-02-24T14:07:31.923Z,-1.17
2023-02-24T14:10:02.794Z,-1.09
2023-02-24T14:12:32.578Z,-1.23
2023-02-24T14:14:59.948Z,-1.23
2023-02-24T14:17:36.831Z,-1.25
2023-02-24T14:20:09.592Z,-1.12
2023-02-24T14:22:44.348Z,-1.19
2023-02-24T14:25:11.574Z,-1.35
2023-02-24T14:27:38.466Z,-1.27
2023-02-24T14:30:07.811Z,-1.26
2023-02-24T14:32:35.084Z,-1.26
2023-02-24T14:35:01.747Z,-1.26
2023-02-24T14:37:34.607Z,-1.18
2023-02-24T14:40:05.895Z,-1.09
2023-02-24T14:42:32.457Z,-1.11
2023-02-24T14:44:59.534Z,-1.08
2023-02-24T14:47:28.867Z,-1.17
2023-02-24T14:49:57.302Z,-1.08
2023-02-24T14:52:38.677Z,-1.06
2023-02-24T14:55:19.229Z,-1.10
2023-02-24T14:58:01.965Z,-0.92
2023-02-24T15:00:52.238Z,-0.93
2023-02-24T15:03:36.822Z,-1.04
2023-02-24T15:06:12.773Z,-1.12
2023-02-24T15:08:45.773Z,-1.12
2023-02-24T15:11:14.909Z,-1.23
2023-02-24T15:13:48.031Z,-1.19
2023-02-24T15:16:26.962Z,-1.19
2023-02-24T15:19:01.263Z,-1.26
2023-02-24T15:21:39.985Z,-1.25
2023-02-24T15:24:20.280Z,-1.33
2023-02-24T15:27:11.989Z,-1.35
2023-02-24T15:29:38.683Z,-1.36
2023-02-24T15:32:08.384Z,-1.32
2023-02-24T15:34:36.947Z,-1.38
2023-02-24T15:37:22.294Z,-1.31
2023-02-24T15:39:50.445Z,-1.47
2023-02-24T15:42:23.220Z,-1.32
2023-02-24T15:44:55.731Z,-1.43
2023-02-24T15:47:39.716Z,-1.40
2023-02-24T15:50:06.559Z,-1.42
2023-02-24T15:52:33.293Z,-1.30
2023-02-24T15:55:02.510Z,-1.35
2023-02-24T15:57:31.427Z,-1.38
2023-02-24T15:59:58.292Z,-1.38
2023-02-24T16:02:25.708Z,-1.40
2023-02-24T16:04:52.464Z,-1.34
2023-02-24T16:07:22.104Z,-1.35
2023-02-24T16:09:51.554Z,-1.42
2023-02-24T16:12:24.563Z,-1.30
2023-02-24T16:14:55.814Z,-1.30
2023-02-24T16:17:22.235Z,-1.42
2023-02-24T16:19:48.889Z,-1.34
2023-02-24T16:22:15.556Z,-1.24
2023-02-24T16:24:43.858Z,-1.33
2023-02-24T16:27:17.056Z,-1.31
2023-02-24T16:29:44.012Z,-1.28
2023-02-24T16:32:12.966Z,-1.27
2023-02-24T16:34:39.753Z,-1.25
2023-02-24T16:37:19.119Z,-1.29
2023-02-24T16:39:46.925Z,-1.25
2023-02-24T16:42:13.387Z,-1.18
2023-02-24T16:44:40.092Z,-1.23
2023-02-24T16:47:12.346Z,-1.24
2023-02-24T16:49:40.037Z,-1.27
2023-02-24T16:52:06.590Z,-1.08
2023-02-24T16:54:33.081Z,-1.21
2023-02-24T16:56:59.665Z,-1.27
2023-02-24T16:59:28.700Z,-1.22
2023-02-24T17:01:55.776Z,-1.19
2023-02-24T17:04:24.842Z,-1.22
2023-02-24T17:06:51.468Z,-1.11
2023-02-24T17:09:18.036Z,-1.16
2023-02-24T17:11:44.993Z,-1.10
2023-02-24T17:14:17.512Z,-1.12
2023-02-24T17:16:44.348Z,-1.19
2023-02-24T17:19:10.854Z,-1.16
2023-02-24T17:21:41.284Z,-1.03
2023-02-24T17:24:08.041Z,-1.07
2023-02-24T17:26:34.574Z,-1.10
2023-02-24T17:29:01.025Z,-1.13
2023-02-24T17:31:31.641Z,-1.08
2023-02-24T17:33:58.492Z,-1.17
2023-02-24T17:36:25.130Z,-1.10
2023-02-24T17:38:51.631Z,-1.13
2023-02-24T17:41:18.061Z,-1.12
2023-02-24T17:43:44.663Z,-1.06
2023-02-24T17:46:11.255Z,-1.01
2023-02-24T17:48:37.873Z,-1.05
2023-02-24T17:51:04.404Z,-1.03
2023-02-24T17:53:31.298Z,-1.07
2023-02-24T17:56:05.137Z,-1.05
2023-02-24T17:58:32.810Z,-1.10
2023-02-24T18:01:01.920Z,-1.03
2023-02-24T18:03:30.478Z,-1.06
2023-02-24T18:06:08.885Z,-1.15
2023-02-24T18:08:36.501Z,-1.05
2023-02-24T18:11:04.237Z,-1.11
2023-02-24T18:13:31.716Z,-1.04
2023-02-24T18:15:59.069Z,-1.07
2023-02-24T18:18:27.654Z,-1.01
2023-02-24T18:20:58.560Z,-0.99
2023-02-24T18:23:25.263Z,-0.95
2023-02-24T18:25:51.718Z,-1.08
2023-02-24T18:28:18.220Z,-1.08
2023-02-24T18:30:44.720Z,-1.02
2023-02-24T18:33:11.441Z,-1.01
2023-02-24T18:35:38.910Z,-0.99
2023-02-24T18:38:05.815Z,-1.00
2023-02-24T18:40:32.296Z,-0.93
2023-02-24T18:42:58.748Z,-0.96
2023-02-24T18:45:25.399Z,-0.96
2023-02-24T18:47:52.348Z,-0.87
2023-02-24T18:50:19.375Z,-0.93
2023-02-24T18:52:45.945Z,-0.92
2023-02-24T18:55:12.524Z,-0.93
2023-02-24T18:57:40.278Z,-0.90
2023-02-24T19:00:07.357Z,-0.91
2023-02-24T19:02:33.898Z,-0.90
2023-02-24T19:05:00.376Z,-0.95
2023-02-24T19:07:26.975Z,-0.75
2023-02-24T19:09:53.619Z,-0.81
2023-02-24T19:12:21.371Z,-0.84
2023-02-24T19:14:52.446Z,-0.72
2023-02-24T19:17:20.062Z,-0.78
2023-02-24T19:19:46.662Z,-0.73
2023-02-24T19:22:13.195Z,-0.81
2023-02-24T19:24:39.897Z,-0.71
2023-02-24T19:27:06.526Z,-0.73
2023-02-24T19:29:32.945Z,-0.68
2023-02-24T19:31:59.666Z,-0.72
2023-02-24T19:34:26.195Z,-0.73
2023-02-24T19:36:52.630Z,-0.68
2023-02-24T19:39:19.370Z,-0.70
2023-02-24T19:41:48.514Z,-0.69
2023-02-24T19:44:15.973Z,-0.63
2023-02-24T19:46:43.052Z,-0.68
2023-02-24T19:51:59.190Z,-0.73
2023-02-24T19:54:26.590Z,-0.62
2023-02-24T19:56:55.636Z,-0.67
2023-02-24T19:59:22.667Z,-0.66
2023-02-24T20:01:54.218Z,-0.66
2023-02-24T20:04:21.706Z,-0.59
2023-02-24T20:06:48.397Z,-0.57
2023-02-24T20:09:20.613Z,-0.61
2023-02-24T20:22:28.167Z,-0.58
2023-02-24T20:58:34.993Z,-0.66
2023-02-24T21:01:01.786Z,-0.56
2023-02-24T21:03:28.350Z,-0.58
2023-02-24T21:06:07.940Z,-0.57
2023-02-24T21:08:36.293Z,-0.50
2023-02-24T21:11:02.859Z,-0.50
2023-02-24T21:13:29.386Z,-0.49
2023-02-24T21:26:37.070Z,-0.56
2023-02-24T21:29:03.593Z,-0.47
2023-02-24T21:31:30.185Z,-0.54
2023-02-24T22:25:13.920Z,-0.34
2023-02-24T22:30:21.956Z,-0.37
2023-02-24T22:32:48.539Z,-0.38
2023-02-24T22:35:15.120Z,-0.39
2023-02-24T22:37:41.579Z,-0.33
2023-02-24T22:40:08.776Z,-0.34
2023-02-24T22:42:35.260Z,-0.38
2023-02-24T22:45:01.910Z,-0.34
2023-02-24T22:47:29.290Z,-0.31
2023-02-24T22:49:55.713Z,-0.32
2023-02-24T22:52:22.201Z,-0.24
2023-02-24T22:54:51.816Z,-0.28
2023-02-24T23:13:23.043Z,-0.24
2023-02-24T23:15:49.734Z,-0.22
2023-02-24T23:18:16.775Z,-0.24
2023-02-24T23:20:44.957Z,-0.20
2023-02-24T23:23:11.581Z,-0.16
2023-02-24T23:25:38.782Z,-0.26
2023-02-24T23:28:06.456Z,-0.23
2023-02-24T23:30:33.137Z,-0.18
2023-02-24T23:33:00.829Z,-0.16
2023-02-24T23:35:27.311Z,-0.11
2023-02-24T23:37:53.809Z,-0.16
2023-02-24T23:40:25.780Z,-0.21
2023-02-24T23:42:53.293Z,-0.14
2023-02-24T23:45:20.270Z,-0.19
2023-02-24T23:47:46.711Z,-0.31
2023-02-24T23:50:13.581Z,-0.39
2023-02-24T23:52:40.144Z,-0.32
2023-02-24T23:55:06.960Z,-0.46
2023-02-24T23:57:33.416Z,-0.51
2023-02-24T23:59:59.843Z,-0.48
